createdAt,value
2018-09-24T00:00:12.939Z,29.8
2018-09-24T00:01:14.934Z,29.8
2018-09-24T00:02:16.488Z,30.3
2018-09-24T00:03:17.721Z,29.8
2018-09-24T00:04:19.271Z,30.3
2018-09-24T00:05:20.877Z,29.8
2018-09-24T00:06:22.103Z,30.3
2018-09-24T00:07:23.663Z,29.8
2018-09-24T00:08:25.210Z,30.3
2018-09-24T00:09:26.779Z,29.3
2018-09-24T00:10:28.341Z,29.8
2018-09-24T00:11:29.906Z,29.3
2018-09-24T00:12:31.474Z,30.3
2018-09-24T00:13:33.041Z,29.3
2018-09-24T00:14:34.611Z,29.8
2018-09-24T00:15:36.182Z,29.8
2018-09-24T00:16:37.761Z,29.3
2018-09-24T00:17:39.334Z,29.8
2018-09-24T00:18:40.721Z,29.3
2018-09-24T00:19:42.285Z,29.3
2018-09-24T00:20:43.838Z,29.8
2018-09-24T00:21:45.245Z,29.3
2018-09-24T00:22:46.837Z,29.3
2018-09-24T00:23:48.398Z,29.8
2018-09-24T00:24:49.957Z,29.8
2018-09-24T00:25:51.524Z,29.8
2018-09-24T00:26:52.914Z,30.3
2018-09-24T00:27:54.472Z,29.8
2018-09-24T00:28:56.031Z,29.3
2018-09-24T00:29:57.583Z,29.8
2018-09-24T00:30:59.137Z,29.3
2018-09-24T00:32:00.709Z,29.8
2018-09-24T00:33:02.289Z,29.8
2018-09-24T00:34:03.875Z,28.8
2018-09-24T00:35:05.446Z,29.8
2018-09-24T00:36:07.006Z,29.3
2018-09-24T00:37:08.568Z,29.8
2018-09-24T00:38:10.136Z,29.3
2018-09-24T00:39:11.706Z,28.8
2018-09-24T00:40:13.258Z,28.8
2018-09-24T00:41:14.827Z,29.3
2018-09-24T00:42:16.396Z,29.3
2018-09-24T00:43:17.975Z,28.3
2018-09-24T00:44:19.532Z,29.3
2018-09-24T00:45:21.086Z,29.3
2018-09-24T00:46:22.657Z,28.8
2018-09-24T00:47:24.206Z,28.8
2018-09-24T00:48:25.762Z,29.3
2018-09-24T00:49:27.309Z,29.3
2018-09-24T00:50:28.849Z,28.8
2018-09-24T00:51:30.415Z,28.3
2018-09-24T00:52:31.986Z,28.3
2018-09-24T00:53:33.540Z,28.8
2018-09-24T00:54:35.152Z,28.8
2018-09-24T00:55:36.709Z,28.8
2018-09-24T00:56:38.102Z,29.3
2018-09-24T00:57:39.492Z,28.3
2018-09-24T00:58:40.882Z,29.3
2018-09-24T00:59:42.456Z,28.3
2018-09-24T01:00:44.011Z,28.8
2018-09-24T01:01:45.558Z,29.3
2018-09-24T01:02:47.176Z,28.3
2018-09-24T01:03:48.744Z,28.8
2018-09-24T01:04:50.302Z,28.3
2018-09-24T01:05:51.876Z,29.3
2018-09-24T01:06:53.443Z,28.3
2018-09-24T01:07:54.998Z,29.3
2018-09-24T01:08:56.564Z,28.8
2018-09-24T01:09:58.142Z,28.8
2018-09-24T01:10:59.533Z,29.3
2018-09-24T01:12:01.123Z,28.8
2018-09-24T01:13:02.693Z,28.8
2018-09-24T01:14:04.262Z,28.3
2018-09-24T01:15:05.806Z,29.3
2018-09-24T01:16:07.379Z,28.8
2018-09-24T01:17:08.920Z,29.3
2018-09-24T01:18:10.467Z,28.8
2018-09-24T01:19:12.049Z,29.8
2018-09-24T01:20:13.606Z,29.3
2018-09-24T01:21:15.196Z,29.8
2018-09-24T01:22:16.749Z,29.8
2018-09-24T01:23:18.325Z,29.8
2018-09-24T01:24:19.882Z,30.3
2018-09-24T01:25:21.455Z,29.8
2018-09-24T01:26:23.022Z,29.8
2018-09-24T01:27:24.594Z,28.8
2018-09-24T01:28:25.977Z,29.8
2018-09-24T01:29:27.524Z,30.3
2018-09-24T01:30:29.091Z,29.8
2018-09-24T01:31:30.663Z,30.3
2018-09-24T01:32:32.063Z,30.3
2018-09-24T01:33:33.626Z,29.3
2018-09-24T01:34:35.030Z,29.8
2018-09-24T01:35:36.611Z,30.3
2018-09-24T01:36:38.165Z,30.3
2018-09-24T01:37:39.413Z,30.8
2018-09-24T01:38:40.981Z,30.3
2018-09-24T01:39:42.535Z,30.3
2018-09-24T01:40:44.082Z,31.3
2018-09-24T01:41:45.308Z,31.3
2018-09-24T01:42:46.885Z,31.3
2018-09-24T01:43:48.450Z,31.3
2018-09-24T01:44:49.997Z,31.8
2018-09-24T01:45:51.556Z,31.8
2018-09-24T01:46:53.147Z,31.8
2018-09-24T01:47:54.735Z,31.8
2018-09-24T01:48:56.295Z,32.3
2018-09-24T01:49:57.882Z,32.3
2018-09-24T01:50:59.441Z,31.8
2018-09-24T01:52:00.993Z,32.3
2018-09-24T01:53:02.561Z,32.3
2018-09-24T01:54:04.117Z,32.3
2018-09-24T01:55:05.669Z,32.3
2018-09-24T01:56:07.216Z,32.7
2018-09-24T01:57:08.597Z,33.2
2018-09-24T01:58:10.162Z,33.2
2018-09-24T01:59:11.740Z,32.7
2018-09-24T02:00:13.293Z,32.3
2018-09-24T02:01:14.847Z,32.3
2018-09-24T02:02:16.396Z,32.7
2018-09-24T02:03:17.985Z,32.3
2018-09-24T02:04:19.544Z,33.2
2018-09-24T02:05:21.103Z,32.7
2018-09-24T02:06:22.496Z,33.2
2018-09-24T02:07:24.046Z,32.7
2018-09-24T02:08:25.446Z,33.2
2018-09-24T02:09:27.016Z,32.7
2018-09-24T02:10:28.590Z,32.7
2018-09-24T02:11:30.134Z,33.2
2018-09-24T02:12:31.712Z,32.7
2018-09-24T02:13:33.256Z,33.2
2018-09-24T02:14:34.817Z,33.2
2018-09-24T02:15:36.428Z,32.3
2018-09-24T02:16:38.001Z,32.7
2018-09-24T02:17:39.558Z,32.7
2018-09-24T02:18:41.109Z,33.7
2018-09-24T02:19:42.670Z,32.7
2018-09-24T02:20:44.409Z,33.2
2018-09-24T02:21:46.038Z,32.7
2018-09-24T02:22:47.438Z,32.7
2018-09-24T02:23:49.006Z,32.7
2018-09-24T02:24:50.573Z,33.2
2018-09-24T02:25:52.109Z,33.7
2018-09-24T02:26:53.670Z,32.3
2018-09-24T02:27:55.236Z,32.7
2018-09-24T02:28:56.670Z,33.2
2018-09-24T02:29:58.223Z,33.2
2018-09-24T02:30:59.797Z,33.2
2018-09-24T02:32:01.367Z,33.2
2018-09-24T02:33:02.917Z,33.2
2018-09-24T02:34:04.487Z,33.2
2018-09-24T02:35:05.916Z,32.7
2018-09-24T02:36:07.492Z,33.2
2018-09-24T02:37:09.060Z,33.2
2018-09-24T02:38:10.648Z,33.2
2018-09-24T02:39:12.245Z,32.7
2018-09-24T02:40:13.810Z,33.7
2018-09-24T02:41:15.386Z,33.7
2018-09-24T02:42:16.985Z,32.7
2018-09-24T02:43:18.556Z,33.7
2018-09-24T02:44:20.132Z,33.2
2018-09-24T02:45:21.774Z,33.7
2018-09-24T02:46:23.176Z,33.2
2018-09-24T02:47:24.747Z,33.2
2018-09-24T02:48:26.305Z,33.7
2018-09-24T02:49:27.868Z,33.7
2018-09-24T02:50:29.429Z,33.2
2018-09-24T02:51:30.989Z,33.2
2018-09-24T02:52:32.556Z,33.2
2018-09-24T02:53:34.115Z,33.2
2018-09-24T02:54:35.682Z,33.2
2018-09-24T02:55:37.246Z,33.7
2018-09-24T02:56:38.824Z,33.2
2018-09-24T02:57:40.391Z,33.2
2018-09-24T02:58:41.796Z,32.3
2018-09-24T02:59:43.346Z,32.7
2018-09-24T03:00:44.917Z,33.2
2018-09-24T03:01:46.479Z,33.7
2018-09-24T03:02:48.056Z,33.7
2018-09-24T03:03:49.616Z,33.2
2018-09-24T03:04:51.010Z,33.2
2018-09-24T03:05:52.809Z,33.2
2018-09-24T03:06:54.389Z,32.7
2018-09-24T03:07:55.963Z,33.2
2018-09-24T03:08:57.541Z,33.2
2018-09-24T03:09:59.087Z,32.7
2018-09-24T03:11:00.659Z,33.2
2018-09-24T03:12:02.258Z,32.7
2018-09-24T03:13:03.816Z,33.2
2018-09-24T03:14:05.221Z,33.2
2018-09-24T03:15:06.615Z,33.7
2018-09-24T03:16:08.187Z,33.2
2018-09-24T03:17:09.776Z,32.7
2018-09-24T03:18:11.344Z,32.3
2018-09-24T03:19:12.911Z,32.7
2018-09-24T03:20:14.458Z,33.2
2018-09-24T03:21:15.863Z,32.3
2018-09-24T03:22:17.425Z,32.3
2018-09-24T03:23:18.992Z,32.7
2018-09-24T03:24:20.547Z,32.7
2018-09-24T03:25:22.115Z,33.2
2018-09-24T03:26:24.110Z,32.3
2018-09-24T03:27:25.834Z,32.7
2018-09-24T03:28:27.250Z,32.3
2018-09-24T03:29:28.812Z,32.7
2018-09-24T03:30:30.400Z,32.3
2018-09-24T03:31:31.818Z,32.7
2018-09-24T03:32:33.420Z,32.7
2018-09-24T03:33:35.010Z,33.2
2018-09-24T03:34:36.557Z,33.2
2018-09-24T03:35:38.117Z,32.7
2018-09-24T03:36:39.660Z,32.7
2018-09-24T03:37:41.043Z,33.2
2018-09-24T03:38:42.604Z,33.2
2018-09-24T03:39:44.157Z,33.2
2018-09-24T03:40:45.716Z,33.2
2018-09-24T03:41:47.285Z,33.7
2018-09-24T03:42:48.902Z,33.7
2018-09-24T03:43:50.456Z,34.2
2018-09-24T03:44:52.031Z,33.2
2018-09-24T03:45:53.423Z,34.2
2018-09-24T03:46:54.991Z,33.7
2018-09-24T03:47:56.583Z,33.7
2018-09-24T03:48:58.171Z,33.7
2018-09-24T03:49:59.739Z,33.7
2018-09-24T03:51:01.149Z,33.7
2018-09-24T03:52:02.575Z,34.2
2018-09-24T03:53:04.159Z,34.7
2018-09-24T03:54:05.563Z,34.2
2018-09-24T03:55:07.127Z,34.2
2018-09-24T03:56:08.726Z,33.7
2018-09-24T03:57:10.297Z,34.2
2018-09-24T03:58:11.880Z,35.2
2018-09-24T03:59:13.436Z,34.2
2018-09-24T04:00:15.049Z,34.2
2018-09-24T04:01:16.456Z,34.2
2018-09-24T04:02:18.024Z,34.2
2018-09-24T04:03:19.590Z,34.2
2018-09-24T04:04:21.175Z,34.2
2018-09-24T04:05:22.737Z,35.2
2018-09-24T04:06:24.310Z,35.2
2018-09-24T04:07:25.858Z,34.2
2018-09-24T04:08:27.431Z,34.7
2018-09-24T04:09:29.183Z,34.2
2018-09-24T04:10:30.796Z,34.7
2018-09-24T04:11:32.399Z,34.2
2018-09-24T04:12:33.982Z,34.2
2018-09-24T04:13:35.575Z,33.7
2018-09-24T04:14:37.174Z,35.2
2018-09-24T04:15:38.756Z,34.7
2018-09-24T04:16:40.349Z,34.2
2018-09-24T04:17:42.017Z,33.7
2018-09-24T04:18:43.597Z,34.7
2018-09-24T04:19:45.157Z,35.2
2018-09-24T04:20:46.710Z,33.7
2018-09-24T04:21:48.122Z,34.2
2018-09-24T04:22:49.706Z,35.2
2018-09-24T04:23:51.286Z,34.7
2018-09-24T04:24:52.874Z,34.7
2018-09-24T04:25:54.434Z,35.2
2018-09-24T04:26:56.016Z,34.2
2018-09-24T04:27:57.588Z,34.2
2018-09-24T04:28:59.180Z,34.2
2018-09-24T04:30:00.577Z,34.7
2018-09-24T04:31:02.149Z,34.2
2018-09-24T04:32:03.732Z,34.7
2018-09-24T04:33:05.312Z,34.2
2018-09-24T04:34:06.917Z,34.7
2018-09-24T04:35:08.497Z,34.7
2018-09-24T04:36:10.110Z,34.2
2018-09-24T04:37:11.688Z,34.2
2018-09-24T04:38:13.254Z,34.7
2018-09-24T04:39:14.860Z,34.2
2018-09-24T04:40:16.428Z,35.2
2018-09-24T04:41:18.000Z,34.2
2018-09-24T04:42:19.581Z,33.7
2018-09-24T04:43:20.988Z,34.7
2018-09-24T04:44:22.546Z,33.7
2018-09-24T04:45:24.157Z,34.7
2018-09-24T04:46:25.719Z,35.2
2018-09-24T04:47:27.284Z,34.2
2018-09-24T04:48:28.840Z,34.2
2018-09-24T04:49:30.416Z,34.7
2018-09-24T04:50:32.037Z,33.7
2018-09-24T04:51:33.599Z,34.2
2018-09-24T04:52:35.140Z,34.7
2018-09-24T04:53:36.695Z,34.2
2018-09-24T04:54:37.937Z,34.2
2018-09-24T04:55:39.511Z,34.2
2018-09-24T04:56:41.069Z,34.2
2018-09-24T04:57:42.641Z,34.7
2018-09-24T04:58:44.588Z,34.2
2018-09-24T04:59:46.404Z,33.7
2018-09-24T05:00:47.969Z,33.7
2018-09-24T05:01:49.543Z,34.7
2018-09-24T05:02:51.118Z,34.7
2018-09-24T05:03:52.367Z,33.7
2018-09-24T05:04:53.921Z,33.7
2018-09-24T05:05:55.489Z,33.2
2018-09-24T05:06:57.045Z,34.7
2018-09-24T05:07:58.601Z,34.2
2018-09-24T05:09:00.158Z,34.2
2018-09-24T05:10:01.607Z,34.7
2018-09-24T05:11:03.194Z,33.2
2018-09-24T05:12:04.777Z,33.7
2018-09-24T05:13:06.362Z,34.2
2018-09-24T05:14:07.975Z,33.7
2018-09-24T05:15:09.550Z,33.2
2018-09-24T05:16:11.514Z,33.2
2018-09-24T05:17:13.191Z,33.7
2018-09-24T05:18:14.779Z,34.2
2018-09-24T05:19:16.197Z,33.2
2018-09-24T05:20:18.383Z,33.7
2018-09-24T05:21:20.179Z,33.7
2018-09-24T05:22:21.397Z,33.2
2018-09-24T05:23:22.950Z,32.7
2018-09-24T05:24:24.524Z,32.7
2018-09-24T05:25:26.086Z,33.7
2018-09-24T05:26:27.659Z,33.2
2018-09-24T05:27:30.074Z,33.2
2018-09-24T05:28:31.936Z,33.2
2018-09-24T05:29:33.480Z,32.7
2018-09-24T05:30:35.101Z,32.3
2018-09-24T05:31:36.700Z,32.7
2018-09-24T05:32:38.284Z,32.3
2018-09-24T05:33:39.851Z,32.3
2018-09-24T05:34:41.436Z,32.7
2018-09-24T05:35:42.988Z,32.7
2018-09-24T05:36:44.569Z,32.3
2018-09-24T05:37:46.158Z,32.7
2018-09-24T05:38:47.717Z,32.3
2018-09-24T05:39:49.325Z,32.7
2018-09-24T05:40:50.902Z,32.7
2018-09-24T05:41:52.467Z,33.2
2018-09-24T05:42:54.047Z,32.3
2018-09-24T05:43:55.613Z,33.2
2018-09-24T05:44:57.038Z,32.3
2018-09-24T05:45:58.674Z,32.3
2018-09-24T05:47:00.101Z,32.3
2018-09-24T05:48:01.959Z,33.2
2018-09-24T05:49:03.743Z,34.2
2018-09-24T05:50:05.155Z,33.7
2018-09-24T05:51:06.720Z,33.2
2018-09-24T05:52:08.290Z,34.2
2018-09-24T05:53:09.864Z,34.2
2018-09-24T05:54:11.594Z,34.2
2018-09-24T05:55:12.897Z,33.7
2018-09-24T05:56:14.475Z,34.2
2018-09-24T05:57:16.082Z,34.7
2018-09-24T05:58:17.633Z,34.2
2018-09-24T05:59:19.216Z,34.2
2018-09-24T06:00:20.781Z,33.7
2018-09-24T06:01:22.354Z,33.7
2018-09-24T06:02:23.930Z,34.7
2018-09-24T06:03:25.552Z,34.7
2018-09-24T06:04:27.143Z,34.2
2018-09-24T06:05:28.762Z,34.2
2018-09-24T06:06:30.326Z,34.2
2018-09-24T06:07:31.902Z,34.2
2018-09-24T06:08:33.485Z,34.7
2018-09-24T06:09:35.133Z,34.7
2018-09-24T06:10:36.525Z,35.2
2018-09-24T06:11:38.100Z,34.7
2018-09-24T06:12:39.672Z,35.2
2018-09-24T06:13:41.766Z,33.7
2018-09-24T06:14:43.490Z,34.2
2018-09-24T06:15:45.064Z,33.7
2018-09-24T06:16:46.637Z,34.2
2018-09-24T06:17:48.201Z,34.7
2018-09-24T06:18:49.884Z,34.7
2018-09-24T06:19:51.487Z,33.7
2018-09-24T06:20:52.887Z,33.7
2018-09-24T06:21:54.457Z,34.2
2018-09-24T06:22:56.030Z,34.7
2018-09-24T06:23:57.601Z,34.7
2018-09-24T06:24:59.000Z,34.7
2018-09-24T06:26:00.587Z,34.7
2018-09-24T06:27:02.159Z,34.7
2018-09-24T06:28:03.747Z,34.2
2018-09-24T06:29:05.331Z,34.2
2018-09-24T06:30:06.883Z,34.2
2018-09-24T06:31:08.458Z,34.7
2018-09-24T06:32:10.018Z,34.7
2018-09-24T06:33:11.576Z,34.7
2018-09-24T06:34:13.370Z,34.7
2018-09-24T06:35:15.011Z,34.2
2018-09-24T06:36:16.579Z,33.7
2018-09-24T06:37:18.137Z,33.7
2018-09-24T06:38:19.722Z,34.7
2018-09-24T06:39:21.307Z,34.7
2018-09-24T06:40:22.856Z,34.2
2018-09-24T06:41:24.531Z,34.2
2018-09-24T06:42:26.017Z,34.7
2018-09-24T06:43:27.650Z,34.2
2018-09-24T06:44:29.251Z,34.2
2018-09-24T06:45:30.890Z,34.2
2018-09-24T06:46:32.464Z,33.7
2018-09-24T06:47:34.044Z,33.7
2018-09-24T06:48:35.606Z,34.2
2018-09-24T06:49:37.475Z,34.2
2018-09-24T06:50:39.131Z,34.2
2018-09-24T06:51:40.706Z,33.7
2018-09-24T06:52:42.286Z,34.2
2018-09-24T06:53:43.849Z,33.2
2018-09-24T06:54:45.411Z,33.7
2018-09-24T06:55:47.010Z,33.7
2018-09-24T06:56:48.405Z,34.2
2018-09-24T06:57:49.972Z,33.7
2018-09-24T06:58:51.541Z,34.2
2018-09-24T06:59:53.121Z,33.7
2018-09-24T07:00:54.690Z,34.2
2018-09-24T07:01:56.253Z,34.2
2018-09-24T07:02:57.825Z,33.7
2018-09-24T07:03:59.418Z,33.7
2018-09-24T07:05:00.992Z,34.2
2018-09-24T07:06:02.581Z,33.2
2018-09-24T07:07:04.141Z,34.7
2018-09-24T07:08:05.745Z,38.1
2018-09-24T07:09:07.207Z,42.5
2018-09-24T07:10:08.791Z,44
2018-09-24T07:11:10.576Z,45
2018-09-24T07:12:12.220Z,44.5
2018-09-24T07:13:13.835Z,45.5
2018-09-24T07:14:15.389Z,45.9
2018-09-24T07:15:16.783Z,45
2018-09-24T07:16:18.357Z,44.5
2018-09-24T07:17:19.971Z,44.5
2018-09-24T07:18:21.536Z,44
2018-09-24T07:19:23.091Z,43.5
2018-09-24T07:20:24.505Z,43.5
2018-09-24T07:21:26.505Z,43.5
2018-09-24T07:22:28.198Z,43
2018-09-24T07:23:29.760Z,42.5
2018-09-24T07:24:31.334Z,42
2018-09-24T07:25:32.921Z,41.5
2018-09-24T07:26:34.503Z,41.1
2018-09-24T07:27:36.394Z,41.5
2018-09-24T07:28:38.107Z,41.5
2018-09-24T07:29:39.664Z,40.6
2018-09-24T07:30:41.241Z,40.6
2018-09-24T07:31:42.801Z,40.1
2018-09-24T07:32:44.364Z,40.6
2018-09-24T07:33:45.830Z,40.6
2018-09-24T07:34:47.398Z,39.6
2018-09-24T07:35:48.968Z,39.1
2018-09-24T07:36:50.528Z,39.1
2018-09-24T07:37:52.114Z,39.6
2018-09-24T07:38:53.670Z,39.1
2018-09-24T07:39:55.226Z,39.1
2018-09-24T07:40:56.786Z,39.1
2018-09-24T07:41:58.355Z,39.1
2018-09-24T07:43:00.274Z,38.6
2018-09-24T07:44:01.958Z,38.6
2018-09-24T07:45:03.528Z,39.1
2018-09-24T07:46:05.100Z,40.1
2018-09-24T07:47:06.688Z,39.6
2018-09-24T07:48:08.281Z,38.6
2018-09-24T07:49:09.842Z,38.6
2018-09-24T07:50:11.419Z,39.1
2018-09-24T07:51:12.856Z,39.1
2018-09-24T07:52:14.439Z,38.6
2018-09-24T07:53:16.018Z,39.1
2018-09-24T07:54:17.590Z,38.6
2018-09-24T07:55:19.360Z,38.6
2018-09-24T07:56:20.956Z,38.6
2018-09-24T07:57:22.544Z,39.1
2018-09-24T07:58:24.351Z,38.6
2018-09-24T07:59:25.937Z,38.6
2018-09-24T08:00:27.513Z,38.1
2018-09-24T08:01:29.119Z,38.1
2018-09-24T08:02:30.718Z,38.1
2018-09-24T08:03:32.280Z,38.6
2018-09-24T08:04:33.877Z,38.1
2018-09-24T08:05:35.451Z,38.1
2018-09-24T08:06:37.040Z,38.6
2018-09-24T08:07:39.103Z,38.1
2018-09-24T08:08:40.670Z,38.1
2018-09-24T08:09:42.256Z,38.1
2018-09-24T08:10:43.889Z,38.1
2018-09-24T08:11:45.296Z,37.1
2018-09-24T08:12:47.094Z,38.1
2018-09-24T08:13:48.745Z,37.6
2018-09-24T08:14:50.324Z,37.6
2018-09-24T08:15:51.893Z,37.6
2018-09-24T08:16:53.481Z,37.1
2018-09-24T08:17:55.040Z,37.1
2018-09-24T08:18:56.637Z,37.1
2018-09-24T08:19:58.045Z,37.1
2018-09-24T08:20:59.848Z,37.1
2018-09-24T08:22:01.614Z,37.1
2018-09-24T08:23:03.175Z,37.6
2018-09-24T08:24:04.728Z,37.6
2018-09-24T08:25:06.306Z,37.1
2018-09-24T08:26:07.870Z,37.1
2018-09-24T08:27:09.447Z,37.1
2018-09-24T08:28:11.023Z,36.7
2018-09-24T08:29:12.577Z,37.1
2018-09-24T08:30:14.136Z,36.7
2018-09-24T08:31:15.538Z,37.6
2018-09-24T08:32:17.097Z,37.1
2018-09-24T08:33:18.685Z,36.7
2018-09-24T08:34:20.252Z,37.1
2018-09-24T08:35:21.794Z,36.7
2018-09-24T08:36:23.887Z,36.7
2018-09-24T08:37:25.617Z,36.2
2018-09-24T08:38:27.198Z,36.2
2018-09-24T08:39:28.756Z,36.2
2018-09-24T08:40:30.308Z,36.7
2018-09-24T08:41:31.881Z,36.7
2018-09-24T08:42:33.462Z,36.2
2018-09-24T08:43:35.050Z,35.7
2018-09-24T08:44:36.627Z,36.2
2018-09-24T08:45:38.195Z,36.2
2018-09-24T08:46:39.785Z,35.7
2018-09-24T08:47:41.348Z,35.7
2018-09-24T08:48:42.928Z,35.2
2018-09-24T08:49:44.848Z,35.7
2018-09-24T08:50:46.577Z,35.7
2018-09-24T08:51:48.168Z,35.7
2018-09-24T08:52:49.746Z,35.7
2018-09-24T08:53:51.322Z,35.2
2018-09-24T08:54:52.891Z,35.2
2018-09-24T08:55:54.498Z,34.7
2018-09-24T08:56:56.592Z,35.2
2018-09-24T08:57:58.507Z,34.7
2018-09-24T08:59:00.076Z,35.2
2018-09-24T09:00:01.651Z,34.7
2018-09-24T09:01:03.226Z,34.2
2018-09-24T09:02:04.796Z,34.2
2018-09-24T09:03:06.358Z,34.7
2018-09-24T09:04:07.921Z,34.2
2018-09-24T09:05:09.512Z,34.2
2018-09-24T09:06:11.094Z,34.7
2018-09-24T09:07:12.671Z,34.2
2018-09-24T09:08:14.616Z,34.2
2018-09-24T09:09:16.277Z,34.2
2018-09-24T09:10:17.703Z,34.2
2018-09-24T09:11:19.266Z,34.2
2018-09-24T09:12:20.821Z,33.2
2018-09-24T09:13:22.236Z,33.7
2018-09-24T09:14:23.801Z,33.7
2018-09-24T09:15:25.358Z,34.2
2018-09-24T09:16:27.393Z,33.7
2018-09-24T09:17:29.079Z,33.7
2018-09-24T09:18:30.633Z,33.7
2018-09-24T09:19:32.219Z,34.2
2018-09-24T09:20:33.802Z,33.7
2018-09-24T09:21:35.359Z,34.2
2018-09-24T09:22:36.921Z,34.2
2018-09-24T09:23:38.468Z,33.7
2018-09-24T09:24:40.554Z,33.2
2018-09-24T09:25:42.128Z,34.2
2018-09-24T09:26:43.684Z,33.7
2018-09-24T09:27:45.252Z,34.2
2018-09-24T09:28:46.808Z,35.2
2018-09-24T09:29:48.423Z,34.7
2018-09-24T09:30:50.008Z,34.2
2018-09-24T09:31:51.577Z,35.2
2018-09-24T09:32:52.810Z,34.2
2018-09-24T09:33:54.380Z,34.7
2018-09-24T09:34:55.927Z,34.7
2018-09-24T09:35:57.471Z,34.7
2018-09-24T09:36:59.050Z,35.2
2018-09-24T09:38:00.642Z,35.2
2018-09-24T09:39:02.199Z,35.2
2018-09-24T09:40:03.756Z,34.7
2018-09-24T09:41:05.773Z,34.2
2018-09-24T09:42:07.427Z,34.7
2018-09-24T09:43:08.991Z,34.7
2018-09-24T09:44:10.548Z,35.2
2018-09-24T09:45:12.107Z,35.2
2018-09-24T09:46:13.669Z,34.7
2018-09-24T09:47:15.218Z,34.7
2018-09-24T09:48:16.792Z,34.2
2018-09-24T09:49:18.349Z,34.7
2018-09-24T09:50:19.759Z,34.7
2018-09-24T09:51:21.142Z,35.2
2018-09-24T09:52:22.709Z,35.7
2018-09-24T09:53:24.458Z,34.7
2018-09-24T09:54:26.088Z,34.7
2018-09-24T09:55:27.502Z,35.2
2018-09-24T09:56:29.070Z,35.2
2018-09-24T09:57:30.619Z,35.2
2018-09-24T09:58:32.183Z,34.7
2018-09-24T09:59:33.757Z,34.7
2018-09-24T10:00:35.341Z,35.2
2018-09-24T10:01:36.977Z,34.7
2018-09-24T10:02:38.565Z,35.2
2018-09-24T10:03:40.121Z,34.2
2018-09-24T10:04:41.873Z,34.2
2018-09-24T10:05:43.524Z,34.7
2018-09-24T10:06:44.930Z,34.7
2018-09-24T10:07:46.503Z,34.7
2018-09-24T10:08:48.080Z,34.7
2018-09-24T10:09:49.655Z,34.7
2018-09-24T10:10:51.221Z,34.2
2018-09-24T10:11:52.796Z,34.7
2018-09-24T10:12:54.388Z,34.7
2018-09-24T10:13:55.967Z,33.7
2018-09-24T10:14:57.379Z,34.2
2018-09-24T10:15:58.962Z,34.7
2018-09-24T10:17:00.519Z,35.2
2018-09-24T10:18:02.088Z,34.2
2018-09-24T10:19:03.642Z,33.7
2018-09-24T10:20:05.259Z,34.2
2018-09-24T10:21:06.872Z,34.2
2018-09-24T10:22:08.456Z,34.2
2018-09-24T10:23:09.871Z,34.7
2018-09-24T10:24:10.936Z,34.2
2018-09-24T10:25:12.494Z,34.2
2018-09-24T10:26:14.045Z,34.2
2018-09-24T10:27:15.605Z,34.2
2018-09-24T10:28:17.178Z,34.7
2018-09-24T10:29:18.745Z,34.2
2018-09-24T10:30:20.311Z,34.7
2018-09-24T10:31:21.865Z,33.7
2018-09-24T10:32:23.431Z,34.7
2018-09-24T10:33:25.017Z,33.7
2018-09-24T10:34:26.603Z,34.2
2018-09-24T10:35:28.166Z,33.7
2018-09-24T10:36:29.737Z,33.7
2018-09-24T10:37:31.304Z,33.7
2018-09-24T10:38:32.869Z,33.7
2018-09-24T10:39:34.698Z,33.7
2018-09-24T10:40:36.360Z,34.2
2018-09-24T10:41:37.920Z,34.2
2018-09-24T10:42:39.498Z,33.2
2018-09-24T10:43:41.061Z,33.2
2018-09-24T10:44:42.646Z,33.7
2018-09-24T10:45:44.215Z,33.2
2018-09-24T10:46:45.789Z,33.7
2018-09-24T10:47:47.203Z,33.7
2018-09-24T10:48:48.758Z,33.7
2018-09-24T10:49:50.331Z,33.2
2018-09-24T10:50:51.908Z,33.2
2018-09-24T10:51:53.479Z,33.2
2018-09-24T10:52:55.221Z,32.7
2018-09-24T10:53:56.837Z,33.2
2018-09-24T10:54:58.258Z,32.7
2018-09-24T10:55:59.827Z,32.7
2018-09-24T10:57:01.392Z,31.8
2018-09-24T10:58:03.083Z,32.7
2018-09-24T10:59:04.814Z,32.3
2018-09-24T11:00:06.478Z,32.3
2018-09-24T11:01:08.103Z,32.3
2018-09-24T11:02:09.893Z,32.3
2018-09-24T11:03:11.458Z,32.3
2018-09-24T11:04:13.163Z,31.8
2018-09-24T11:05:14.558Z,32.3
2018-09-24T11:06:16.149Z,32.3
2018-09-24T11:07:17.727Z,31.8
2018-09-24T11:08:19.294Z,32.3
2018-09-24T11:09:20.854Z,31.8
2018-09-24T11:10:22.948Z,32.7
2018-09-24T11:11:24.422Z,32.3
2018-09-24T11:12:25.988Z,32.7
2018-09-24T11:13:27.549Z,33.2
2018-09-24T11:14:29.155Z,33.2
2018-09-24T11:15:30.716Z,33.2
2018-09-24T11:16:33.452Z,33.2
2018-09-24T11:17:36.847Z,32.7
2018-09-24T11:19:10.952Z,33.2
2018-09-24T11:20:12.519Z,33.7
2018-09-24T11:21:14.076Z,32.7
2018-09-24T11:22:15.968Z,33.2
2018-09-24T11:23:17.620Z,33.2
2018-09-24T11:24:19.189Z,33.2
2018-09-24T11:25:20.598Z,33.7
2018-09-24T11:27:33.760Z,33.7
2018-09-24T11:28:35.317Z,33.7
2018-09-24T11:29:37.522Z,33.2
2018-09-24T11:30:39.246Z,34.2
2018-09-24T11:31:40.805Z,34.2
2018-09-24T11:32:42.372Z,33.7
2018-09-24T11:33:43.936Z,33.2
2018-09-24T11:34:45.567Z,33.2
2018-09-24T11:35:47.136Z,34.2
2018-09-24T11:36:48.694Z,33.7
2018-09-24T11:37:50.102Z,33.7
2018-09-24T11:38:51.674Z,34.2
2018-09-24T11:39:53.233Z,33.7
2018-09-24T11:40:54.637Z,33.7
2018-09-24T11:41:56.212Z,34.2
2018-09-24T11:42:57.770Z,34.2
2018-09-24T11:43:59.346Z,33.7
2018-09-24T11:45:00.927Z,33.7
2018-09-24T11:46:02.541Z,33.2
2018-09-24T11:47:04.752Z,33.7
2018-09-24T11:48:06.436Z,33.7
2018-09-24T11:49:07.832Z,33.7
2018-09-24T11:50:09.381Z,33.7
2018-09-24T11:51:10.966Z,33.2
2018-09-24T11:52:12.548Z,33.7
2018-09-24T11:53:14.118Z,33.7
2018-09-24T11:54:15.672Z,33.7
2018-09-24T11:55:17.219Z,33.7
2018-09-24T11:56:18.997Z,33.2
2018-09-24T11:57:20.647Z,34.2
2018-09-24T11:58:22.217Z,33.7
2018-09-24T11:59:23.773Z,32.7
2018-09-24T12:00:25.381Z,33.7
2018-09-24T12:01:26.933Z,34.2
2018-09-24T12:02:28.788Z,33.7
2018-09-24T12:03:30.221Z,33.2
2018-09-24T12:04:31.492Z,33.7
2018-09-24T12:05:33.053Z,33.7
2018-09-24T12:06:34.620Z,34.2
2018-09-24T12:07:36.188Z,33.7
2018-09-24T12:08:37.747Z,32.7
2018-09-24T12:09:39.166Z,33.2
2018-09-24T12:10:41.147Z,33.2
2018-09-24T12:11:42.781Z,33.2
2018-09-24T12:12:44.368Z,33.7
2018-09-24T12:13:45.940Z,34.2
2018-09-24T12:14:47.169Z,32.7
2018-09-24T12:15:48.818Z,33.2
2018-09-24T12:16:50.247Z,33.2
2018-09-24T12:17:51.667Z,33.2
2018-09-24T12:18:52.908Z,33.2
2018-09-24T12:19:54.490Z,33.2
2018-09-24T12:20:56.053Z,33.2
2018-09-24T12:21:57.642Z,33.2
2018-09-24T12:22:59.207Z,33.2
2018-09-24T12:24:00.753Z,33.2
2018-09-24T12:25:02.361Z,33.7
2018-09-24T12:26:03.941Z,33.7
2018-09-24T12:27:05.493Z,33.7
2018-09-24T12:28:07.090Z,33.7
2018-09-24T12:29:08.491Z,33.2
2018-09-24T12:30:10.065Z,33.7
2018-09-24T12:31:11.614Z,32.7
2018-09-24T12:32:13.192Z,33.2
2018-09-24T12:33:14.757Z,33.2
2018-09-24T12:34:16.332Z,32.7
2018-09-24T12:35:17.879Z,33.2
2018-09-24T12:36:19.448Z,33.7
2018-09-24T12:37:21.015Z,33.2
2018-09-24T12:38:22.456Z,33.7
2018-09-24T12:39:24.578Z,32.7
2018-09-24T12:40:26.134Z,32.7
2018-09-24T12:41:27.721Z,32.7
2018-09-24T12:42:29.113Z,32.7
2018-09-24T12:43:30.673Z,32.7
2018-09-24T12:44:32.247Z,32.7
2018-09-24T12:45:33.792Z,32.7
2018-09-24T12:46:35.356Z,32.3
2018-09-24T12:47:36.970Z,32.7
2018-09-24T12:48:38.454Z,32.3
2018-09-24T12:49:40.013Z,32.3
2018-09-24T12:50:41.598Z,33.2
2018-09-24T12:51:43.159Z,31.8
2018-09-24T12:52:44.724Z,33.2
2018-09-24T12:53:46.148Z,32.7
2018-09-24T12:54:47.590Z,32.7
2018-09-24T12:55:49.217Z,31.8
2018-09-24T12:56:50.837Z,32.7
2018-09-24T12:57:52.232Z,32.3
2018-09-24T12:58:53.810Z,32.3
2018-09-24T12:59:55.417Z,31.8
2018-09-24T13:00:56.974Z,31.3
2018-09-24T13:01:58.538Z,32.3
2018-09-24T13:03:00.116Z,31.8
2018-09-24T13:04:01.687Z,31.8
2018-09-24T13:05:03.246Z,31.8
2018-09-24T13:06:04.796Z,32.3
2018-09-24T13:07:06.351Z,31.8
2018-09-24T13:08:07.920Z,32.3
2018-09-24T13:09:09.487Z,32.7
2018-09-24T13:10:10.883Z,32.3
2018-09-24T13:11:12.455Z,31.8
2018-09-24T13:12:14.027Z,32.3
2018-09-24T13:13:15.593Z,32.3
2018-09-24T13:14:17.199Z,32.7
2018-09-24T13:15:18.763Z,32.3
2018-09-24T13:16:20.166Z,32.7
2018-09-24T13:17:21.735Z,32.7
2018-09-24T13:18:23.321Z,32.7
2018-09-24T13:19:24.897Z,33.2
2018-09-24T13:20:26.463Z,33.2
2018-09-24T13:21:27.903Z,32.7
2018-09-24T13:22:29.505Z,33.7
2018-09-24T13:23:31.080Z,33.2
2018-09-24T13:24:32.642Z,33.7
2018-09-24T13:25:34.211Z,33.7
2018-09-24T13:26:35.842Z,33.7
2018-09-24T13:27:37.402Z,33.2
2018-09-24T13:28:38.821Z,33.2
2018-09-24T13:29:40.383Z,33.2
2018-09-24T13:30:41.792Z,33.7
2018-09-24T13:31:43.202Z,33.7
2018-09-24T13:32:45.110Z,33.2
2018-09-24T13:33:46.761Z,33.7
2018-09-24T13:34:48.328Z,33.7
2018-09-24T13:35:49.902Z,33.7
2018-09-24T13:36:51.489Z,33.2
2018-09-24T13:37:53.052Z,34.2
2018-09-24T13:38:54.613Z,34.2
2018-09-24T13:39:56.167Z,33.7
2018-09-24T13:40:57.728Z,33.7